createdAt,value
2019-02-22T00:02:05.200Z,37.33
2019-02-22T00:04:34.746Z,38.90
2019-02-22T00:07:06.102Z,41.50
2019-02-22T00:09:35.642Z,40.37
2019-02-22T00:12:05.144Z,41.50
2019-02-22T00:14:34.546Z,37.87
2019-02-22T00:17:04.014Z,38.83
2019-02-22T00:19:33.462Z,38.50
2019-02-22T00:22:02.896Z,40.43
2019-02-22T00:24:32.373Z,40.63
2019-02-22T00:27:01.840Z,38.33
2019-02-22T00:29:31.474Z,39.90
2019-02-22T00:32:01.133Z,39.87
2019-02-22T00:34:30.577Z,40.60
2019-02-22T00:37:00.086Z,40.20
2019-02-22T00:39:29.553Z,40.97
2019-02-22T00:41:58.954Z,40.80
2019-02-22T00:44:28.340Z,40.07
2019-02-22T00:46:57.886Z,42.10
2019-02-22T00:49:27.331Z,44.40
2019-02-22T00:51:56.839Z,42.60
2019-02-22T00:54:26.361Z,41.30
2019-02-22T00:56:55.820Z,40.07
2019-02-22T00:59:25.328Z,39.60
2019-02-22T01:01:54.824Z,43.23
2019-02-22T01:04:24.378Z,42.80
2019-02-22T01:06:53.836Z,42.60
2019-02-22T01:09:23.337Z,40.73
2019-02-22T01:11:52.818Z,42.97
2019-02-22T01:14:22.974Z,43.97
2019-02-22T01:16:52.362Z,44.03
2019-02-22T01:19:21.906Z,46.10
2019-02-22T01:21:51.394Z,43.47
2019-02-22T01:24:20.887Z,43.67
2019-02-22T01:26:50.466Z,45.83
2019-02-22T01:29:19.888Z,42.57
2019-02-22T01:31:49.587Z,45.03
2019-02-22T01:34:19.020Z,45.60
2019-02-22T01:36:48.476Z,45.23
2019-02-22T01:39:18.106Z,44.37
2019-02-22T01:41:47.720Z,44.53
2019-02-22T01:44:20.622Z,42.93
2019-02-22T01:46:50.150Z,45.53
2019-02-22T01:49:19.646Z,45.83
2019-02-22T01:51:49.116Z,44.10
2019-02-22T01:54:18.568Z,43.93
2019-02-22T01:56:48.076Z,45.10
2019-02-22T01:59:17.660Z,45.60
2019-02-22T02:01:47.158Z,45.27
2019-02-22T02:04:16.710Z,43.73
2019-02-22T02:06:46.150Z,51.07
2019-02-22T02:09:15.686Z,54.63
2019-02-22T02:11:45.174Z,54.63
2019-02-22T02:14:14.787Z,55.07
2019-02-22T02:16:44.440Z,55.40
2019-02-22T02:19:14.006Z,58.90
2019-02-22T02:21:44.027Z,55.53
2019-02-22T02:24:15.114Z,55.50
2019-02-22T02:26:44.535Z,56.63
2019-02-22T02:29:14.120Z,55.07
2019-02-22T02:31:43.687Z,57.97
2019-02-22T02:34:13.141Z,56.60
2019-02-22T02:36:42.589Z,57.03
2019-02-22T02:39:12.042Z,55.40
2019-02-22T02:41:41.520Z,58.97
2019-02-22T02:44:10.950Z,57.63
2019-02-22T02:46:40.416Z,58.87
2019-02-22T02:49:09.923Z,60.10
2019-02-22T02:51:39.305Z,60.17
2019-02-22T02:54:08.887Z,60.33
2019-02-22T02:56:38.465Z,58.67
2019-02-22T02:59:07.989Z,58.27
2019-02-22T03:01:37.563Z,58.53
2019-02-22T03:04:07.070Z,58.10
2019-02-22T03:06:38.198Z,59.47
2019-02-22T03:09:09.324Z,56.03
2019-02-22T03:11:38.885Z,57.33
2019-02-22T03:14:08.267Z,58.97
2019-02-22T03:16:37.642Z,55.07
2019-02-22T03:19:07.151Z,59.47
2019-02-22T03:21:36.709Z,59.57
2019-02-22T03:24:06.216Z,58.43
2019-02-22T03:26:35.616Z,57.13
2019-02-22T03:29:05.100Z,60.77
2019-02-22T03:31:34.715Z,64.33
2019-02-22T03:34:04.191Z,70.17
2019-02-22T03:36:33.687Z,74.53
2019-02-22T03:39:04.863Z,77.33
2019-02-22T03:41:34.279Z,76.97
2019-02-22T03:44:03.726Z,77.83
2019-02-22T03:46:33.272Z,73.40
2019-02-22T03:49:02.741Z,84.40
2019-02-22T03:51:32.276Z,75.03
2019-02-22T03:54:01.879Z,72.80
2019-02-22T03:56:31.464Z,76.33
2019-02-22T03:59:01.134Z,72.40
2019-02-22T04:01:30.669Z,78.27
2019-02-22T04:04:00.206Z,74.13
2019-02-22T04:06:29.703Z,75.83
2019-02-22T04:08:59.364Z,78.97
2019-02-22T04:11:28.954Z,81.10
2019-02-22T04:13:58.492Z,80.27
2019-02-22T04:16:28.070Z,75.57
2019-02-22T04:18:59.247Z,73.43
2019-02-22T04:21:30.400Z,71.27
2019-02-22T04:23:59.901Z,70.90
2019-02-22T04:26:29.335Z,70.20
2019-02-22T04:28:58.893Z,69.00
2019-02-22T04:31:28.433Z,71.20
2019-02-22T04:33:57.964Z,70.47
2019-02-22T04:36:27.398Z,70.33
2019-02-22T04:38:56.871Z,71.63
2019-02-22T04:41:26.389Z,67.73
2019-02-22T04:43:55.970Z,72.50
2019-02-22T04:46:25.459Z,66.27
2019-02-22T04:48:54.953Z,68.77
2019-02-22T04:51:24.621Z,66.50
2019-02-22T04:53:54.033Z,66.17
2019-02-22T04:56:23.433Z,64.30
2019-02-22T04:58:52.915Z,65.70
2019-02-22T05:01:22.335Z,64.37
2019-02-22T05:03:51.816Z,65.90
2019-02-22T05:06:21.242Z,66.43
2019-02-22T05:08:50.781Z,62.43
2019-02-22T05:11:20.285Z,62.70
2019-02-22T05:13:49.739Z,65.30
2019-02-22T05:16:19.212Z,61.77
2019-02-22T05:18:48.793Z,62.47
2019-02-22T05:21:18.317Z,64.43
2019-02-22T05:23:47.994Z,62.30
2019-02-22T05:26:17.419Z,60.37
2019-02-22T05:28:46.853Z,62.10
2019-02-22T05:31:16.283Z,57.50
2019-02-22T05:33:45.744Z,59.40
2019-02-22T05:36:16.764Z,60.60
2019-02-22T05:38:46.261Z,61.40
2019-02-22T05:41:15.761Z,59.07
2019-02-22T05:43:45.365Z,58.93
2019-02-22T05:46:14.991Z,56.13
2019-02-22T05:48:44.485Z,61.37
2019-02-22T05:51:13.980Z,55.97
2019-02-22T05:53:43.541Z,57.10
2019-02-22T05:56:13.025Z,55.70
2019-02-22T05:58:42.541Z,54.80
2019-02-22T06:01:11.964Z,56.80
2019-02-22T06:03:41.569Z,54.03
2019-02-22T06:06:11.058Z,53.60
2019-02-22T06:08:40.552Z,55.70
2019-02-22T06:11:10.047Z,52.90
2019-02-22T06:13:39.549Z,53.37
2019-02-22T06:16:09.057Z,57.40
2019-02-22T06:18:38.594Z,57.37
2019-02-22T06:21:08.037Z,53.30
2019-02-22T06:23:37.514Z,53.83
2019-02-22T06:26:07.015Z,56.27
2019-02-22T06:28:36.523Z,55.57
2019-02-22T06:31:06.067Z,51.07
2019-02-22T06:33:35.507Z,57.30
2019-02-22T06:36:05.052Z,55.87
2019-02-22T06:38:34.457Z,53.83
2019-02-22T06:41:04.037Z,56.17
2019-02-22T06:43:33.588Z,56.17
2019-02-22T06:46:03.067Z,51.17
2019-02-22T06:48:32.483Z,56.27
2019-02-22T06:51:01.922Z,55.83
2019-02-22T06:53:31.491Z,53.27
2019-02-22T06:56:00.976Z,54.07
2019-02-22T06:58:30.452Z,57.10
2019-02-22T07:01:00.029Z,56.00
2019-02-22T07:03:29.601Z,56.47
2019-02-22T07:05:59.059Z,56.97
2019-02-22T07:08:28.539Z,57.37
2019-02-22T07:11:02.745Z,56.90
2019-02-22T07:13:32.508Z,60.40
2019-02-22T07:16:01.931Z,57.83
2019-02-22T07:18:31.409Z,58.93
2019-02-22T07:21:00.931Z,56.13
2019-02-22T07:23:30.554Z,57.50
2019-02-22T07:26:00.009Z,60.80
2019-02-22T07:28:29.437Z,57.10
2019-02-22T07:30:58.953Z,57.90
2019-02-22T07:33:28.441Z,58.57
2019-02-22T07:35:57.941Z,56.77
2019-02-22T07:38:28.359Z,56.93
2019-02-22T07:40:57.791Z,57.97
2019-02-22T07:43:27.205Z,59.57
2019-02-22T07:45:56.769Z,61.93
2019-02-22T07:48:26.345Z,55.77
2019-02-22T07:50:58.197Z,56.57
2019-02-22T07:53:27.106Z,54.97
2019-02-22T07:55:56.667Z,56.60
2019-02-22T07:58:26.053Z,56.47
2019-02-22T08:00:55.615Z,57.47
2019-02-22T08:03:25.047Z,56.40
2019-02-22T08:05:54.557Z,55.63
2019-02-22T08:08:24.142Z,58.17
2019-02-22T08:10:53.733Z,57.70
2019-02-22T08:13:23.223Z,55.63
2019-02-22T08:15:52.803Z,56.67
2019-02-22T08:18:22.299Z,53.63
2019-02-22T08:20:51.745Z,55.70
2019-02-22T08:23:21.265Z,55.03
2019-02-22T08:25:50.783Z,54.37
2019-02-22T08:28:20.291Z,54.87
2019-02-22T08:30:51.463Z,53.70
2019-02-22T08:33:21.095Z,55.07
2019-02-22T08:35:50.601Z,54.20
2019-02-22T08:38:20.128Z,54.87
2019-02-22T08:40:49.740Z,55.03
2019-02-22T08:43:30.608Z,53.77
2019-02-22T08:45:50.385Z,54.80
2019-02-22T08:48:20.997Z,53.97
2019-02-22T08:50:50.390Z,54.90
2019-02-22T08:53:20.645Z,51.60
2019-02-22T08:55:50.259Z,51.73
2019-02-22T08:58:19.779Z,51.70
2019-02-22T09:00:49.251Z,54.30
2019-02-22T09:03:18.767Z,53.33
2019-02-22T09:05:48.383Z,54.20
2019-02-22T09:08:18.007Z,50.30
2019-02-22T09:10:57.523Z,50.63
2019-02-22T09:13:18.581Z,53.90
2019-02-22T09:15:48.152Z,50.40
2019-02-22T09:18:17.629Z,45.60
2019-02-22T09:20:47.102Z,48.53
2019-02-22T09:23:17.711Z,47.53
2019-02-22T09:25:47.235Z,48.63
2019-02-22T09:28:16.791Z,47.50
2019-02-22T09:30:46.264Z,47.17
2019-02-22T09:33:15.951Z,47.97
2019-02-22T09:35:45.443Z,47.17
2019-02-22T09:38:14.859Z,47.63
2019-02-22T09:40:44.419Z,46.07
2019-02-22T09:43:13.917Z,48.73
2019-02-22T09:45:43.451Z,48.23
2019-02-22T09:48:12.947Z,47.77
2019-02-22T09:50:42.415Z,47.83
2019-02-22T09:53:11.951Z,46.70
2019-02-22T09:55:41.549Z,48.13
2019-02-22T09:58:11.042Z,46.80
2019-02-22T10:00:40.534Z,47.20
2019-02-22T10:03:10.029Z,44.97
2019-02-22T10:05:39.508Z,44.90
2019-02-22T10:08:08.971Z,44.80
2019-02-22T10:10:38.449Z,45.00
2019-02-22T10:13:07.971Z,47.83
2019-02-22T10:15:37.453Z,47.13
2019-02-22T10:18:07.041Z,46.60
2019-02-22T10:20:36.578Z,45.87
2019-02-22T10:23:06.063Z,47.10
2019-02-22T10:25:35.634Z,49.77
2019-02-22T10:28:05.280Z,49.17
2019-02-22T10:30:34.798Z,49.27
2019-02-22T10:33:04.345Z,49.10
2019-02-22T10:35:34.093Z,48.13
2019-02-22T10:38:03.788Z,47.83
2019-02-22T10:40:33.259Z,47.90
2019-02-22T10:43:02.781Z,48.50
2019-02-22T10:45:32.406Z,49.30
2019-02-22T10:48:01.820Z,50.27
2019-02-22T10:50:31.314Z,48.40
2019-02-22T10:53:02.348Z,50.37
2019-02-22T10:55:32.582Z,49.73
2019-02-22T10:58:03.705Z,49.20
2019-02-22T11:00:34.979Z,50.67
2019-02-22T11:03:04.477Z,50.97
2019-02-22T11:05:34.043Z,50.53
2019-02-22T11:08:03.530Z,51.03
2019-02-22T11:10:33.125Z,51.27
2019-02-22T11:13:02.726Z,50.13
2019-02-22T11:15:32.282Z,49.57
2019-02-22T11:18:01.831Z,50.63
2019-02-22T11:20:31.406Z,51.17
2019-02-22T11:23:00.921Z,49.57
2019-02-22T11:25:30.492Z,48.37
2019-02-22T11:28:00.004Z,48.60
2019-02-22T11:30:29.517Z,49.63
2019-02-22T11:32:59.162Z,50.03
2019-02-22T11:35:28.643Z,50.77
2019-02-22T11:37:58.212Z,50.30
2019-02-22T11:40:27.680Z,51.13
2019-02-22T11:42:57.256Z,47.80
2019-02-22T11:45:26.713Z,48.77
2019-02-22T11:47:56.314Z,48.73
2019-02-22T11:50:25.778Z,48.23
2019-02-22T11:52:55.356Z,47.40
2019-02-22T11:55:24.884Z,48.93
2019-02-22T11:57:54.598Z,47.90
2019-02-22T12:00:24.156Z,47.00
2019-02-22T12:02:54.705Z,48.57
2019-02-22T12:05:24.168Z,46.87
2019-02-22T12:07:54.639Z,48.20
2019-02-22T12:10:24.146Z,47.37
2019-02-22T12:12:55.453Z,44.47
2019-02-22T12:15:24.938Z,48.17
2019-02-22T12:17:54.412Z,46.33
2019-02-22T12:20:23.964Z,48.80
2019-02-22T12:22:53.412Z,48.17
2019-02-22T12:25:23.430Z,47.43
2019-02-22T12:27:53.006Z,48.20
2019-02-22T12:30:22.556Z,47.30
2019-02-22T12:32:51.937Z,47.20
2019-02-22T12:35:21.481Z,49.70
2019-02-22T12:37:50.979Z,48.53
2019-02-22T12:40:20.426Z,48.57
2019-02-22T12:42:49.942Z,48.43
2019-02-22T12:45:21.070Z,47.33
2019-02-22T12:47:50.686Z,49.33
2019-02-22T12:50:20.228Z,48.90
2019-02-22T12:52:49.714Z,47.17
2019-02-22T12:55:19.248Z,45.53
2019-02-22T12:57:49.141Z,47.20
2019-02-22T13:00:19.726Z,47.30
2019-02-22T13:03:01.217Z,45.63
2019-02-22T13:05:27.121Z,43.77
2019-02-22T13:07:56.620Z,45.63
2019-02-22T13:10:27.630Z,44.20
2019-02-22T13:12:57.226Z,42.67
2019-02-22T13:15:26.683Z,41.57
2019-02-22T13:17:56.188Z,42.60
2019-02-22T13:20:26.696Z,44.00
2019-02-22T13:22:56.404Z,41.33
2019-02-22T13:25:25.890Z,43.97
2019-02-22T13:27:55.313Z,41.70
2019-02-22T13:30:24.835Z,43.37
2019-02-22T13:32:54.395Z,46.13
2019-02-22T13:35:24.132Z,43.93
2019-02-22T13:37:53.620Z,44.47
2019-02-22T13:40:23.378Z,43.63
2019-02-22T13:42:52.910Z,43.63
2019-02-22T13:45:26.980Z,42.13
2019-02-22T13:47:54.583Z,40.77
2019-02-22T13:50:24.135Z,40.33
2019-02-22T13:52:53.626Z,39.67
2019-02-22T13:55:23.095Z,40.43
2019-02-22T13:57:52.728Z,38.00
2019-02-22T14:00:22.314Z,33.40
2019-02-22T14:02:52.042Z,35.43
2019-02-22T14:05:21.503Z,33.77
2019-02-22T14:07:56.526Z,34.63
2019-02-22T14:10:26.689Z,37.20
2019-02-22T14:12:56.258Z,38.57
2019-02-22T14:15:37.076Z,36.77
2019-02-22T14:17:57.914Z,34.93
2019-02-22T14:20:27.409Z,35.73
2019-02-22T14:22:56.920Z,33.03
2019-02-22T14:25:26.540Z,32.43
2019-02-22T14:27:56.215Z,28.57
2019-02-22T14:30:25.834Z,31.23
2019-02-22T14:32:55.294Z,33.73
2019-02-22T14:35:24.780Z,34.67
2019-02-22T14:37:54.426Z,37.27
2019-02-22T14:40:24.016Z,35.27
2019-02-22T14:42:53.522Z,34.63
2019-02-22T14:45:23.972Z,34.80
2019-02-22T14:47:53.444Z,34.60
2019-02-22T14:50:23.409Z,35.53
2019-02-22T14:52:53.898Z,35.50
2019-02-22T14:55:23.392Z,32.83
2019-02-22T14:57:52.835Z,33.20
2019-02-22T15:00:22.380Z,31.60
2019-02-22T15:02:51.871Z,31.20
2019-02-22T15:05:21.360Z,33.37
2019-02-22T15:07:51.629Z,31.77
2019-02-22T15:10:21.210Z,31.67
2019-02-22T15:12:50.628Z,31.67
2019-02-22T15:15:22.046Z,32.77
2019-02-22T15:17:56.172Z,31.23
2019-02-22T15:20:25.772Z,33.03
2019-02-22T15:22:55.138Z,34.67
2019-02-22T15:25:24.688Z,35.77
2019-02-22T15:27:54.221Z,35.10
2019-02-22T15:30:23.887Z,35.97
2019-02-22T15:32:53.461Z,34.17
2019-02-22T15:35:22.974Z,33.43
2019-02-22T15:37:52.483Z,32.30
2019-02-22T15:40:23.640Z,31.97
2019-02-22T15:43:10.115Z,28.60
2019-02-22T15:45:41.260Z,29.37
2019-02-22T15:48:14.460Z,31.50
2019-02-22T15:50:45.142Z,31.40
2019-02-22T15:53:32.471Z,31.53
2019-02-22T15:56:02.066Z,33.07
2019-02-22T15:58:31.562Z,30.73
2019-02-22T16:01:01.012Z,31.63
2019-02-22T16:03:32.210Z,30.60
2019-02-22T16:06:01.738Z,32.50
2019-02-22T16:08:31.302Z,32.83
2019-02-22T16:11:00.763Z,33.10
2019-02-22T16:13:30.256Z,35.83
2019-02-22T16:15:59.745Z,35.90
2019-02-22T16:18:29.222Z,36.23
2019-02-22T16:20:58.848Z,40.43
2019-02-22T16:23:28.389Z,39.03
2019-02-22T16:25:58.892Z,38.80
2019-02-22T16:28:28.428Z,39.30
2019-02-22T16:30:57.966Z,41.90
2019-02-22T16:33:27.451Z,41.53
2019-02-22T16:35:56.913Z,44.03
2019-02-22T16:38:26.355Z,44.97
2019-02-22T16:40:55.815Z,46.13
2019-02-22T16:43:25.334Z,43.87
2019-02-22T16:45:54.806Z,43.87
2019-02-22T16:48:24.293Z,43.13
2019-02-22T16:51:03.507Z,41.80
2019-02-22T16:53:33.117Z,42.17
2019-02-22T16:56:02.677Z,40.57
2019-02-22T16:58:32.245Z,41.70
2019-02-22T17:01:01.700Z,41.47
2019-02-22T17:03:31.152Z,40.17
2019-02-22T17:06:04.719Z,38.57
2019-02-22T17:08:34.262Z,40.03
2019-02-22T17:11:03.862Z,37.93
2019-02-22T17:13:33.366Z,38.30
2019-02-22T17:16:02.889Z,36.07
2019-02-22T17:18:32.348Z,35.73
2019-02-22T17:21:01.889Z,36.10
2019-02-22T17:23:31.429Z,35.63
2019-02-22T17:26:00.879Z,38.07
2019-02-22T17:28:30.483Z,36.03
2019-02-22T17:30:59.947Z,36.63
2019-02-22T17:33:29.431Z,36.57
2019-02-22T17:35:58.879Z,36.53
2019-02-22T17:38:34.633Z,37.63
2019-02-22T17:41:04.175Z,37.23
2019-02-22T17:43:33.761Z,35.93
2019-02-22T17:46:03.287Z,38.07
2019-02-22T17:48:32.793Z,37.13
2019-02-22T17:51:02.326Z,36.90
2019-02-22T17:53:31.884Z,37.40
2019-02-22T17:56:01.429Z,36.17
2019-02-22T17:58:33.513Z,35.93
2019-02-22T18:01:02.405Z,34.83
2019-02-22T18:03:31.946Z,35.97
2019-02-22T18:06:01.451Z,35.13
2019-02-22T18:08:30.993Z,35.33
2019-02-22T18:11:02.164Z,34.90
2019-02-22T18:13:31.666Z,33.63
2019-02-22T18:16:01.277Z,34.13
2019-02-22T18:18:30.775Z,34.33
2019-02-22T18:21:00.341Z,33.83
2019-02-22T18:23:29.826Z,36.23
2019-02-22T18:25:59.363Z,36.40
2019-02-22T18:28:28.953Z,37.97
2019-02-22T18:30:58.425Z,37.90
2019-02-22T18:33:27.952Z,38.27
2019-02-22T18:35:57.469Z,38.03
2019-02-22T18:38:27.061Z,39.33
2019-02-22T19:15:08.999Z,41.27
2019-02-22T19:37:15.185Z,41.23
2019-02-22T20:05:33.403Z,46.00
2019-02-22T20:14:58.024Z,46.60
2019-02-22T20:54:55.178Z,48.57
2019-02-22T20:57:24.732Z,50.97
2019-02-22T20:59:54.242Z,54.43
2019-02-22T21:02:23.647Z,54.10
2019-02-22T21:04:53.165Z,54.53
2019-02-22T21:07:22.675Z,55.90
2019-02-22T21:09:52.171Z,54.43
2019-02-22T21:12:21.671Z,52.57
2019-02-22T21:14:51.264Z,53.97
2019-02-22T21:17:20.819Z,55.33
2019-02-22T21:19:50.346Z,57.40
2019-02-22T21:22:19.858Z,56.53
2019-02-22T21:24:49.329Z,54.97
2019-02-22T21:27:18.812Z,56.73
2019-02-22T21:29:48.233Z,56.93
2019-02-22T21:32:17.762Z,54.07
2019-02-22T21:34:48.986Z,57.60
2019-02-22T21:37:18.439Z,58.10
2019-02-22T21:39:47.952Z,54.23
2019-02-22T21:42:20.029Z,56.77
2019-02-22T21:44:48.515Z,56.63
2019-02-22T21:47:18.058Z,57.17
2019-02-22T21:49:47.489Z,56.03
2019-02-22T21:52:16.919Z,58.57
2019-02-22T21:54:46.415Z,58.17
2019-02-22T21:57:15.830Z,56.57
2019-02-22T21:59:45.356Z,56.40
2019-02-22T22:02:14.759Z,59.07
2019-02-22T22:04:44.260Z,56.80
2019-02-22T22:07:13.708Z,58.73
2019-02-22T22:09:43.205Z,57.77
2019-02-22T22:12:12.671Z,57.07
2019-02-22T22:14:42.248Z,58.83
2019-02-22T22:17:13.077Z,60.37
2019-02-22T22:19:42.548Z,57.07
2019-02-22T22:22:12.037Z,59.30
2019-02-22T22:24:41.428Z,59.17
2019-02-22T22:27:10.903Z,59.97
2019-02-22T22:29:40.415Z,57.83
2019-02-22T22:32:09.942Z,58.97
2019-02-22T22:34:39.461Z,58.07
2019-02-22T22:37:08.892Z,58.00
2019-02-22T22:39:38.399Z,58.20
2019-02-22T22:42:07.899Z,59.57
2019-02-22T22:44:37.348Z,57.97
2019-02-22T22:47:06.846Z,58.73
2019-02-22T22:49:36.263Z,60.53
2019-02-22T22:52:05.722Z,60.70
2019-02-22T22:54:35.422Z,57.60
2019-02-22T22:57:04.910Z,61.07
2019-02-22T22:59:34.386Z,57.53
2019-02-22T23:02:04.310Z,57.60
2019-02-22T23:04:33.790Z,58.23
2019-02-22T23:07:03.407Z,58.87
2019-02-22T23:09:33.040Z,57.77
2019-02-22T23:12:02.892Z,56.50
2019-02-22T23:14:32.402Z,58.50
2019-02-22T23:17:01.881Z,58.63
2019-02-22T23:19:31.344Z,58.97
2019-02-22T23:22:00.900Z,59.60
2019-02-22T23:24:30.400Z,60.80
2019-02-22T23:26:59.922Z,58.37
2019-02-22T23:29:29.440Z,60.10
2019-02-22T23:31:58.924Z,60.57
2019-02-22T23:34:28.482Z,58.33
2019-02-22T23:36:57.948Z,59.30
2019-02-22T23:39:27.415Z,58.67
2019-02-22T23:41:56.878Z,58.10
2019-02-22T23:44:26.420Z,57.93
2019-02-22T23:46:55.904Z,55.57
2019-02-22T23:49:25.444Z,55.33
2019-02-22T23:51:54.898Z,58.73
2019-02-22T23:54:24.395Z,61.13
2019-02-22T23:56:53.938Z,56.07
2019-02-22T23:59:23.323Z,58.80
